Williamsburg, MI (49690)

2:20 PM EDT on July 04, 2015 (GMT -0400)
MesoWest | | Change Station
CLOSE
Current Station
Personal Weather Station
Location: Williamsburg, MI
Elevation: 721 ft
Nearby Weather Stations

Elev 721 ft 44.77 °N, 85.40 °W | Updated 35 minutes ago

Partly Cloudy
Partly Cloudy
76 °F
Feels Like 78 °F
N
3
Wind Variable Wind from NNW
Gusts 10.0 mph

Today
High -- | Low -- °F
--% Chance of Precip.
Yesterday
High -- | Low -- °F
Precip. -- in
6:01 AM 9:30 PM
Waning Gibbous, 91% visible
Pressure 29.96 in
Visibility 10.0 miles
Clouds Few 6500 ft
Scattered Clouds 15000 ft
Mostly Cloudy 25000 ft
Heat Index 78 °F
Dew Point 59 °F
Humidity 56%
Rainfall in
Snow Depth Not available.
UV 6 out of 12
Pollen 4.40 out of 12
Air Quality Not available.
Flu Activity Not available.
METAR KTVC 041753Z 02006KT 10SM FEW065 SCT150 BKN250 24/16 A2996 RMK AO2 SLP144 T02440156 10250 20178 51003

More Conditions Fewer Conditions

Pressure 29.96 in
Visibility 10.0 miles
Clouds Few 6500 ft
Scattered Clouds 15000 ft
Mostly Cloudy 25000 ft
Heat Index 78 °F
Dew Point 59 °F
Humidity 56%
Rainfall in
Snow Depth Not available.
UV 6 out of 12
Pollen 4.40 out of 12
Air Quality Not available.
Flu Activity Not available.
METAR KTVC 041753Z 02006KT 10SM FEW065 SCT150 BKN250 24/16 A2996 RMK AO2 SLP144 T02440156 10250 20178 51003

More Conditions Fewer Conditions

Nowcast | as of 2:00 PM EDT on July 4, 2015

Mostly clear. At 5 PM...mostly clear. Temperature 76. North winds 8 mph. Mostly clear. Mostly clear.

×

10-Day Weather Forecast

×

Almanac

Astronomy

Jul. 04, 2015 Rise Set
Actual Time
Civil Twilight
Nautical Twilight
Astronomical Twilight
Moon
Length of Visible Light
Length of Day
Tomorrow will be .
, % of the Moon is Illuminated

Today's Extremes

State Highs State Lows

Community

WunderPhotos

Upload Photos

1,835,032 photos uploaded!

WunderBlogs® & News

Nearby

Air Quality

  Air Quality AQ Index Pollutant
Not available.

Snow Depth

Station Depth Elevation

Earthquake Activity

City Distance Mag. Time & Date
Minimum magnitude displayed is 2.5.

Coastal Water Temperatures

Place Temperature

Stations

Nearby Weather Stations

Station Location Temp. Windchill Dew Point Humidity Wind Precip. Elev Updated Type